Time;durP1;ratioP1;P1;durP2;ratioP2;P2;SDS_P1;SDS_P2;PMS_P1;PMS_P2;Temp;Humidity;BMP_temperature;BMP_pressure;BME280_temperature;BME280_humidity;BME280_pressure;Samples;Min_cycle;Max_cycle;Signal;HPM_P1;HPM_P2
2021/05/26 00:02:13;;;;;;;14.18;4.72;;;;;;;23.53;42.55;100214.50;4483854;32;33891;-55
2021/05/26 00:04:41;;;;;;;9.80;4.40;;;;;;;23.54;42.69;100223.50;4484235;32;33700;-56
2021/05/26 00:07:09;;;;;;;10.93;3.70;;;;;;;23.53;42.74;100216.37;4484221;32;35187;-55
2021/05/26 00:09:36;;;;;;;9.20;4.20;;;;;;;23.53;42.79;100219.09;4484050;32;33958;-57
2021/05/26 00:12:04;;;;;;;8.90;4.28;;;;;;;23.53;42.78;100200.03;4483893;32;34024;-58
2021/05/26 00:14:32;;;;;;;12.80;3.70;;;;;;;23.53;42.74;100200.03;4484134;32;33450;-58
2021/05/26 00:17:00;;;;;;;9.20;4.00;;;;;;;23.53;42.74;100216.37;4483894;32;33595;-57
2021/05/26 00:19:28;;;;;;;12.00;4.00;;;;;;;23.52;42.71;100204.66;4483917;32;33818;-58
2021/05/26 00:21:55;;;;;;;13.50;4.03;;;;;;;23.52;42.69;100204.66;4484021;32;34136;-58
2021/05/26 00:24:23;;;;;;;10.05;4.32;;;;;;;23.52;42.73;100214.72;4483866;32;33538;-59
2021/05/26 00:26:51;;;;;;;9.57;4.28;;;;;;;23.51;42.71;100211.16;4484092;32;33806;-58
2021/05/26 00:29:18;;;;;;;10.65;4.05;;;;;;;23.51;42.73;100197.53;4483962;32;33972;-57
2021/05/26 00:31:46;;;;;;;9.45;4.43;;;;;;;23.51;42.76;100194.81;4482942;32;34059;-60
2021/05/26 00:34:13;;;;;;;6.15;3.40;;;;;;;23.52;42.78;100191.03;4475452;32;33372;-58
2021/05/26 00:36:41;;;;;;;8.05;3.50;;;;;;;23.51;42.76;100194.00;4483757;32;33811;-60
2021/05/26 00:39:08;;;;;;;12.43;4.00;;;;;;;23.50;42.82;100185.00;4483642;32;34769;-59
2021/05/26 00:41:36;;;;;;;9.52;3.97;;;;;;;23.51;42.84;100192.09;4484009;32;34101;-59
2021/05/26 00:44:04;;;;;;;14.85;3.80;;;;;;;23.50;42.80;100185.00;4484090;32;33534;-60
2021/05/26 00:46:39;;;;;;;8.40;3.78;;;;;;;23.50;43.12;100192.28;4483747;32;33772;-59
2021/05/26 00:49:07;;;;;;;11.75;4.37;;;;;;;23.52;43.14;100187.47;4483216;32;34771;-59
2021/05/26 00:51:35;;;;;;;10.07;4.03;;;;;;;23.50;43.11;100184.13;4483059;32;33996;-58
2021/05/26 00:54:04;;;;;;;9.20;4.15;;;;;;;23.49;43.09;100177.84;4483946;32;33541;-58
2021/05/26 00:56:33;;;;;;;11.43;4.15;;;;;;;23.49;43.00;100175.13;4483698;32;34900;-59
2021/05/26 00:59:01;;;;;;;11.35;4.18;;;;;;;23.49;43.05;100177.84;4484090;32;34059;-60
2021/05/26 01:01:28;;;;;;;10.57;3.42;;;;;;;23.50;43.03;100167.78;4483850;32;34037;-59
2021/05/26 01:03:58;;;;;;;23.10;5.00;;;;;;;23.49;42.89;100166.94;4483758;32;33577;-60
2021/05/26 01:06:26;;;;;;;13.32;3.87;;;;;;;23.50;43.00;100170.50;4482437;32;33908;-58
2021/05/26 01:08:54;;;;;;;12.30;3.87;;;;;;;23.49;43.08;100172.41;4483600;32;33801;-58
2021/05/26 01:11:22;;;;;;;7.05;3.30;;;;;;;23.49;42.97;100171.56;4483861;32;34207;-58
2021/05/26 01:13:50;;;;;;;7.57;3.70;;;;;;;23.48;42.98;100169.91;4483547;32;33195;-60
2021/05/26 01:16:18;;;;;;;11.93;3.87;;;;;;;23.48;43.01;100170.72;4483596;32;33853;-58
2021/05/26 01:18:48;;;;;;;6.82;4.07;;;;;;;23.47;43.06;100166.34;4483876;32;34589;-58
2021/05/26 01:21:16;;;;;;;10.10;3.30;;;;;;;23.48;42.99;100168.00;4483444;32;34109;-60
2021/05/26 01:23:48;;;;;;;14.43;3.70;;;;;;;23.48;43.08;100161.72;4483585;32;34686;-59
2021/05/26 01:26:17;;;;;;;11.45;3.85;;;;;;;23.47;43.12;100166.34;4483594;32;33763;-59
2021/05/26 01:28:45;;;;;;;7.70;3.42;;;;;;;23.47;43.01;100166.34;4483582;32;33432;-59
2021/05/26 01:31:20;;;;;;;10.88;4.10;;;;;;;23.46;43.00;100158.41;4483680;32;34206;-59
2021/05/26 01:34:00;;;;;;;7.22;3.42;;;;;;;23.47;43.02;100166.34;4483547;32;34200;-59
2021/05/26 01:36:29;;;;;;;7.53;3.25;;;;;;;23.47;43.03;100176.41;4483765;32;33965;-60
2021/05/26 01:39:04;;;;;;;6.78;3.30;;;;;;;23.46;43.00;100175.56;4483461;32;33867;-60
2021/05/26 01:41:32;;;;;;;10.35;3.72;;;;;;;23.47;42.91;100179.13;4483524;32;33813;-59
2021/05/26 01:44:02;;;;;;;8.23;3.53;;;;;;;23.46;42.97;100175.56;4483393;32;34438;-57
2021/05/26 01:46:30;;;;;;;8.40;3.20;;;;;;;23.46;42.99;100181.03;4483362;31;34096;-60
2021/05/26 01:48:57;;;;;;;8.95;3.25;;;;;;;23.46;42.97;100186.47;4483207;32;33896;-57
2021/05/26 01:51:26;;;;;;;12.15;3.87;;;;;;;23.44;43.23;100180.38;4483498;32;34093;-60
2021/05/26 01:53:55;;;;;;;8.73;3.25;;;;;;;23.45;43.18;100182.06;4482990;32;34464;-59
2021/05/26 01:56:25;;;;;;;9.93;3.25;;;;;;;23.47;43.15;100187.31;4483435;32;34508;-57
2021/05/26 01:58:54;;;;;;;10.00;3.37;;;;;;;23.45;43.13;100187.50;4483382;32;34586;-57
2021/05/26 02:01:25;;;;;;;8.60;4.30;;;;;;;23.46;43.08;100186.47;4484070;32;34874;-59
2021/05/26 02:03:54;;;;;;;8.88;3.62;;;;;;;23.45;43.10;100186.66;4485396;32;33608;-59
2021/05/26 02:06:21;;;;;;;9.75;3.80;;;;;;;23.46;42.96;100191.09;4484837;32;33945;-59
2021/05/26 02:08:50;;;;;;;10.20;3.42;;;;;;;23.44;43.23;100188.56;4485301;32;34703;-59
2021/05/26 02:14:06;;;;;;;7.25;3.22;;;;;;;23.46;43.12;100191.09;4485291;32;34555;-60
2021/05/26 02:16:35;;;;;;;10.52;3.42;;;;;;;23.44;43.11;100194.00;4485022;32;34497;-59
2021/05/26 02:19:04;;;;;;;9.97;3.30;;;;;;;23.42;43.09;100196.94;4485064;32;33881;-59
2021/05/26 02:21:32;;;;;;;9.30;3.22;;;;;;;23.44;43.06;100199.44;4485081;32;33938;-60
2021/05/26 02:24:00;;;;;;;13.65;3.60;;;;;;;23.42;43.14;100202.41;4484927;32;34462;-59
2021/05/26 02:26:27;;;;;;;8.98;3.60;;;;;;;23.44;43.11;100210.34;4481078;32;34420;-59
2021/05/26 02:28:56;;;;;;;8.82;3.58;;;;;;;23.44;43.11;100213.06;4469611;32;33915;-60
2021/05/26 02:31:25;;;;;;;15.63;3.62;;;;;;;23.43;43.17;100206.78;4469451;32;35687;-60
2021/05/26 02:33:52;;;;;;;10.30;3.45;;;;;;;23.44;43.14;100204.91;4469325;32;33235;-59
2021/05/26 02:36:20;;;;;;;8.25;3.50;;;;;;;23.42;43.21;100202.41;4469436;32;34644;-59
2021/05/26 02:38:48;;;;;;;10.25;3.45;;;;;;;23.43;43.26;100205.97;4468979;32;34789;-60
2021/05/26 02:41:16;;;;;;;13.15;3.22;;;;;;;23.42;43.24;100205.12;4469273;32;34097;-60
2021/05/26 02:43:44;;;;;;;12.05;3.50;;;;;;;23.42;43.22;100190.69;4469462;32;33105;-60
2021/05/26 02:46:12;;;;;;;9.65;3.00;;;;;;;23.42;43.26;100196.13;4469120;32;33560;-59
2021/05/26 02:48:39;;;;;;;10.73;3.65;;;;;;;23.41;43.24;100206.19;4469296;32;33998;-59
2021/05/26 02:51:07;;;;;;;10.70;3.40;;;;;;;23.41;43.21;100206.19;4473815;32;34047;-56
2021/05/26 02:53:35;;;;;;;10.45;3.08;;;;;;;23.41;43.25;100210.78;4473167;32;33497;-56
2021/05/26 02:56:03;;;;;;;10.50;3.42;;;;;;;23.42;43.06;100217.91;4478775;31;34422;-56
2021/05/26 02:58:34;;;;;;;12.85;3.60;;;;;;;23.42;43.00;100221.47;4484699;31;32230;-56
2021/05/26 03:01:05;;;;;;;12.07;3.75;;;;;;;23.39;43.26;100221.88;4484557;32;32519;-57
2021/05/26 03:03:33;;;;;;;7.22;3.05;;;;;;;23.41;43.29;100222.53;4484893;32;33537;-57
2021/05/26 03:06:02;;;;;;;7.10;3.20;;;;;;;23.41;43.31;100229.84;4484885;32;33819;-58
2021/05/26 03:08:32;;;;;;;12.82;3.40;;;;;;;23.42;43.24;100234.25;4484779;32;33617;-57
2021/05/26 03:11:00;;;;;;;9.82;3.20;;;;;;;23.42;43.22;100236.97;4484821;32;34239;-58
2021/05/26 03:13:28;;;;;;;9.52;2.90;;;;;;;23.41;43.26;100232.59;4480244;32;34396;-52
2021/05/26 03:15:56;;;;;;;10.07;3.33;;;;;;;23.41;43.17;100235.31;4468641;32;34032;-57
2021/05/26 03:18:24;;;;;;;10.13;3.00;;;;;;;23.41;43.19;100235.31;4468754;32;33065;-55
2021/05/26 03:20:52;;;;;;;7.18;2.95;;;;;;;23.40;43.20;100239.06;4468650;32;34795;-56
2021/05/26 03:23:21;;;;;;;7.53;2.97;;;;;;;23.40;43.21;100245.34;4468948;32;33684;-57
2021/05/26 03:25:52;;;;;;;6.87;3.37;;;;;;;23.40;43.19;100245.34;4469167;32;32252;-57
2021/05/26 03:28:19;;;;;;;9.50;3.00;;;;;;;23.41;43.20;100246.19;4468821;32;33720;-56
2021/05/26 03:30:47;;;;;;;7.00;3.40;;;;;;;23.40;43.19;100247.22;4468634;32;34036;-53
2021/05/26 03:33:15;;;;;;;8.65;3.03;;;;;;;23.39;43.23;100248.28;4468749;32;33532;-58
2021/05/26 03:35:43;;;;;;;7.80;3.20;;;;;;;23.40;43.27;100258.13;4468962;32;33947;-56
2021/05/26 03:38:11;;;;;;;8.00;2.97;;;;;;;23.40;43.31;100260.84;4468099;32;33723;-57
2021/05/26 03:40:40;;;;;;;12.33;3.30;;;;;;;23.39;43.34;100254.56;4468725;32;33364;-57
2021/05/26 03:43:08;;;;;;;13.23;3.10;;;;;;;23.39;43.28;100243.66;4469554;32;33627;-59
2021/05/26 03:45:36;;;;;;;8.82;3.00;;;;;;;23.39;43.25;100251.00;4484494;32;33832;-58
2021/05/26 03:48:05;;;;;;;8.27;3.03;;;;;;;23.38;43.35;100242.00;4484413;31;32384;-60
2021/05/26 03:50:33;;;;;;;10.63;3.00;;;;;;;23.38;43.18;100244.72;4484104;32;33828;-58
2021/05/26 03:53:01;;;;;;;10.13;3.15;;;;;;;23.39;43.13;100242.84;4484564;32;33460;-60
2021/05/26 03:55:29;;;;;;;6.62;2.78;;;;;;;23.37;43.45;100250.41;4484600;32;33901;-58
2021/05/26 03:57:59;;;;;;;9.95;3.03;;;;;;;23.37;43.48;100243.06;4484259;32;33880;-58
2021/05/26 04:00:27;;;;;;;7.82;3.08;;;;;;;23.37;43.44;100243.06;4484600;32;34242;-60
2021/05/26 04:03:00;;;;;;;9.63;3.22;;;;;;;23.38;43.42;100252.06;4484421;32;33395;-59
2021/05/26 04:05:29;;;;;;;13.32;3.22;;;;;;;23.37;43.46;100242.22;4484253;32;33678;-59
2021/05/26 04:07:57;;;;;;;8.45;2.83;;;;;;;23.37;43.45;100239.50;4484368;32;33713;-59
2021/05/26 04:10:25;;;;;;;10.80;3.20;;;;;;;23.36;43.41;100241.41;4484486;32;33984;-58
2021/05/26 04:12:53;;;;;;;8.88;3.28;;;;;;;23.37;43.35;100247.69;4484465;32;34405;-60
2021/05/26 04:15:22;;;;;;;13.62;3.45;;;;;;;23.36;43.42;100249.56;4484434;32;33817;-59
2021/05/26 04:17:52;;;;;;;17.25;3.05;;;;;;;23.37;43.41;100251.22;4484010;32;32417;-59
2021/05/26 04:20:20;;;;;;;7.78;3.15;;;;;;;23.36;43.43;100263.19;4484341;32;34587;-58
2021/05/26 04:22:48;;;;;;;8.07;3.10;;;;;;;23.36;43.32;100256.88;4483069;32;33186;-57
2021/05/26 04:25:15;;;;;;;8.80;2.80;;;;;;;23.36;43.30;100254.16;4476512;32;33975;-57
2021/05/26 04:27:43;;;;;;;8.73;3.05;;;;;;;23.36;43.40;100257.75;4484045;32;33791;-56
2021/05/26 04:30:12;;;;;;;8.32;3.17;;;;;;;23.36;43.35;100259.59;4484104;32;33987;-55
2021/05/26 04:32:40;;;;;;;26.62;6.18;;;;;;;23.36;43.28;100255.00;4483533;32;34299;-61
2021/05/26 04:35:09;;;;;;;19.02;3.80;;;;;;;23.38;43.52;100254.78;4482959;32;34535;-59
2021/05/26 04:37:36;;;;;;;21.73;3.58;;;;;;;23.37;41.67;100255.84;4484100;32;34601;-58
2021/05/26 04:40:05;;;;;;;17.37;3.67;;;;;;;23.34;41.78;100246.22;4483590;32;34009;-59
2021/05/26 04:42:33;;;;;;;15.65;3.40;;;;;;;23.34;42.17;100245.38;4477852;32;34481;-57
2021/05/26 04:45:01;;;;;;;14.77;3.62;;;;;;;23.33;42.40;100240.97;4482469;32;35268;-58
2021/05/26 04:47:29;;;;;;;13.40;3.30;;;;;;;23.32;42.34;100242.88;4483185;32;33865;-58
2021/05/26 04:49:56;;;;;;;17.95;4.82;;;;;;;23.32;42.35;100247.50;4483841;32;33788;-58
2021/05/26 04:52:24;;;;;;;15.25;3.80;;;;;;;23.31;42.67;100246.63;4483979;32;35099;-59
2021/05/26 04:54:52;;;;;;;19.17;4.03;;;;;;;23.31;42.82;100238.47;4483610;32;34568;-59
2021/05/26 04:57:20;;;;;;;11.07;2.87;;;;;;;23.32;42.55;100247.50;4479056;32;33835;-58
2021/05/26 04:59:47;;;;;;;14.23;2.90;;;;;;;23.30;42.46;100244.13;4481865;32;34069;-57
2021/05/26 05:02:15;;;;;;;12.75;3.08;;;;;;;23.30;42.47;100244.97;4482973;32;33613;-59
2021/05/26 05:04:42;;;;;;;18.02;3.05;;;;;;;23.29;42.50;100242.47;4483729;32;35078;-60
2021/05/26 05:07:11;;;;;;;13.00;3.37;;;;;;;23.29;42.50;100243.28;4483681;32;33079;-60
2021/05/26 05:09:39;;;;;;;17.98;3.22;;;;;;;23.29;42.50;100248.75;4483556;32;34772;-59
2021/05/26 05:12:07;;;;;;;18.62;4.43;;;;;;;23.29;42.46;100247.91;4484022;32;33623;-60
2021/05/26 05:14:35;;;;;;;11.48;3.30;;;;;;;23.28;42.45;100255.25;4483753;32;34664;-60
2021/05/26 05:17:02;;;;;;;11.38;3.40;;;;;;;23.28;42.42;100247.06;4478970;32;33498;-57
2021/05/26 05:19:30;;;;;;;10.25;2.70;;;;;;;23.28;42.41;100251.69;4476416;32;34025;-58
2021/05/26 05:21:57;;;;;;;15.48;3.78;;;;;;;23.29;42.40;100250.63;4479406;32;33503;-57
2021/05/26 05:24:25;;;;;;;12.98;3.10;;;;;;;23.28;42.36;100257.97;4481284;32;33429;-57
2021/05/26 05:26:53;;;;;;;10.73;3.00;;;;;;;23.29;42.36;100253.34;4467781;32;33808;-58
2021/05/26 05:29:21;;;;;;;11.50;3.12;;;;;;;23.31;42.35;100256.69;4467740;32;34770;-57
2021/05/26 05:31:48;;;;;;;10.98;3.45;;;;;;;23.29;42.37;100256.91;4467534;32;33655;-57
2021/05/26 05:34:16;;;;;;;9.70;2.70;;;;;;;23.29;42.39;100250.63;4467621;32;34556;-58
2021/05/26 05:36:43;;;;;;;12.45;3.40;;;;;;;23.28;42.39;100255.25;4469892;32;34780;-56
2021/05/26 05:39:11;;;;;;;9.05;2.62;;;;;;;23.29;42.38;100258.81;4482697;32;34177;-57
2021/05/26 05:41:39;;;;;;;9.40;3.10;;;;;;;23.28;42.36;100260.69;4477964;32;33600;-58
2021/05/26 05:44:06;;;;;;;9.38;2.92;;;;;;;23.29;42.36;100254.19;4481776;32;33805;-55
2021/05/26 05:46:34;;;;;;;9.65;3.35;;;;;;;23.28;42.35;100260.69;4474286;32;33664;-58
2021/05/26 05:49:02;;;;;;;10.40;3.08;;;;;;;23.28;42.33;100259.84;4473887;32;34725;-58
2021/05/26 05:51:30;;;;;;;11.10;2.83;;;;;;;23.27;42.34;100261.75;4483138;32;33180;-56
2021/05/26 05:53:57;;;;;;;11.45;2.62;;;;;;;23.27;42.34;100259.03;4483503;32;33168;-57
2021/05/26 05:56:25;;;;;;;10.25;3.20;;;;;;;23.27;42.30;100267.19;4482995;32;34860;-56
2021/05/26 05:58:53;;;;;;;11.20;2.90;;;;;;;23.27;42.31;100258.16;4473183;32;34014;-54
2021/05/26 06:01:21;;;;;;;7.22;2.80;;;;;;;23.26;42.31;100256.50;4467512;32;34354;-57
2021/05/26 06:03:49;;;;;;;10.15;3.00;;;;;;;23.26;42.32;100268.22;4472005;32;33787;-56
2021/05/26 06:06:16;;;;;;;9.63;3.08;;;;;;;23.25;42.31;100263.81;4482637;32;34558;-56
2021/05/26 06:08:44;;;;;;;10.10;3.08;;;;;;;23.26;42.31;100272.84;4483027;32;34814;-55
2021/05/26 06:11:12;;;;;;;10.23;2.70;;;;;;;23.24;42.33;100273.06;4483116;32;33495;-57
2021/05/26 06:13:42;;;;;;;6.05;2.50;;;;;;;23.25;42.32;100273.88;4482833;32;33890;-56
2021/05/26 06:16:09;;;;;;;13.00;3.33;;;;;;;23.24;42.32;100266.78;4482902;32;33924;-57
2021/05/26 06:18:37;;;;;;;7.43;2.67;;;;;;;23.25;42.30;100268.44;4482659;32;34178;-58
2021/05/26 06:21:05;;;;;;;6.22;2.42;;;;;;;23.23;42.30;100276.84;4482676;32;33708;-57
2021/05/26 06:23:32;;;;;;;7.05;2.65;;;;;;;23.24;42.30;100274.94;4482923;32;34016;-57
2021/05/26 06:26:02;;;;;;;9.52;3.05;;;;;;;23.24;42.30;100272.22;4483056;32;34957;-58
2021/05/26 06:28:30;;;;;;;7.62;2.53;;;;;;;23.23;42.30;100270.56;4482387;32;34231;-57
2021/05/26 06:30:57;;;;;;;7.60;2.47;;;;;;;23.23;42.29;100268.66;4482624;32;33490;-55
2021/05/26 06:33:25;;;;;;;11.23;2.80;;;;;;;23.23;42.28;100267.84;4470289;32;33620;-58
2021/05/26 06:35:53;;;;;;;7.00;2.10;;;;;;;23.21;42.28;100259.84;4477976;32;33635;-58
2021/05/26 06:38:21;;;;;;;7.72;2.15;;;;;;;23.21;42.28;100262.59;4478714;32;34978;-57
2021/05/26 06:40:48;;;;;;;7.22;2.30;;;;;;;23.20;42.28;100255.47;4477735;32;34316;-57
2021/05/26 06:43:16;;;;;;;6.35;2.35;;;;;;;23.21;42.26;100259.03;4476804;32;34591;-57
2021/05/26 06:45:43;;;;;;;11.85;3.12;;;;;;;23.21;42.25;100261.75;4477784;32;36315;-56
2021/05/26 06:48:11;;;;;;;11.02;2.55;;;;;;;23.21;42.26;100261.75;4478075;32;34794;-58
2021/05/26 06:50:39;;;;;;;6.78;2.35;;;;;;;23.20;42.25;100258.19;4477868;32;34303;-57
2021/05/26 06:53:06;;;;;;;6.22;2.50;;;;;;;23.20;42.24;100250.03;4479546;32;34223;-58
2021/05/26 06:55:34;;;;;;;9.95;2.37;;;;;;;23.20;42.24;100252.75;4479679;32;34034;-57
2021/05/26 06:58:02;;;;;;;6.43;2.45;;;;;;;23.21;42.22;100250.84;4479524;32;33665;-58
2021/05/26 07:00:30;;;;;;;8.35;2.53;;;;;;;23.22;42.20;100247.91;4479541;32;34667;-56
2021/05/26 07:02:58;;;;;;;7.40;2.20;;;;;;;23.23;42.20;100243.34;4479303;32;33728;-58
2021/05/26 07:05:27;;;;;;;8.35;2.60;;;;;;;23.23;42.20;100244.16;4479452;32;33853;-58
2021/05/26 07:07:55;;;;;;;10.30;3.22;;;;;;;23.25;42.20;100246.66;4481262;32;34797;-57
2021/05/26 07:10:24;;;;;;;7.87;2.30;;;;;;;23.25;42.19;100243.94;4479836;32;33396;-58
2021/05/26 07:12:52;;;;;;;5.90;2.40;;;;;;;23.26;42.15;100237.44;4478942;32;34202;-56
2021/05/26 07:15:20;;;;;;;5.45;2.30;;;;;;;23.26;42.15;100238.28;4479478;32;32482;-58
2021/05/26 07:17:48;;;;;;;4.00;2.25;;;;;;;23.26;42.12;100238.28;4478917;32;34006;-58
2021/05/26 07:20:16;;;;;;;4.65;2.10;;;;;;;23.28;42.12;100233.47;4479161;32;33344;-58
2021/05/26 07:22:44;;;;;;;5.93;2.55;;;;;;;23.28;42.13;100229.91;4479736;32;34051;-57
2021/05/26 07:25:12;;;;;;;6.10;2.20;;;;;;;23.29;42.10;100231.56;4479105;32;33923;-54
2021/05/26 07:27:40;;;;;;;5.90;2.45;;;;;;;23.29;42.10;100235.12;4478934;32;34782;-56
2021/05/26 07:30:08;;;;;;;5.75;2.30;;;;;;;23.30;42.09;100233.25;4479683;32;34421;-58
2021/05/26 07:32:35;;;;;;;5.65;2.12;;;;;;;23.32;42.09;100242.03;4479786;32;35283;-58
2021/05/26 07:35:04;;;;;;;7.37;2.22;;;;;;;23.32;42.07;100244.75;4479457;32;33891;-57
2021/05/26 07:37:32;;;;;;;4.97;2.45;;;;;;;23.32;42.08;100244.75;4479230;32;34217;-57
2021/05/26 07:40:01;;;;;;;8.50;2.58;;;;;;;23.33;42.06;100249.16;4478934;32;32195;-59
2021/05/26 07:42:28;;;;;;;6.00;2.03;;;;;;;23.33;42.07;100240.97;4479405;32;33798;-55
2021/05/26 07:44:56;;;;;;;4.85;2.60;;;;;;;23.35;42.04;100244.31;4479391;32;33806;-59
2021/05/26 07:47:24;;;;;;;7.55;2.30;;;;;;;23.34;42.03;100242.66;4479082;32;34016;-57
2021/05/26 07:49:56;;;;;;;5.10;1.98;;;;;;;23.34;42.02;100240.75;4479056;32;32147;-59
2021/05/26 07:52:26;;;;;;;5.97;2.33;;;;;;;23.34;42.03;100242.66;4479385;32;34476;-57
2021/05/26 07:54:55;;;;;;;6.57;2.83;;;;;;;23.35;42.01;100238.88;4479447;32;34772;-58
2021/05/26 07:57:23;;;;;;;4.80;2.08;;;;;;;23.35;42.01;100242.44;4478976;32;34238;-58
2021/05/26 07:59:50;;;;;;;7.03;2.42;;;;;;;23.34;41.99;100238.03;4478810;32;34257;-58
2021/05/26 08:02:18;;;;;;;5.95;2.53;;;;;;;23.36;41.98;100240.53;4479125;32;33590;-56
2021/05/26 08:04:48;;;;;;;6.87;2.05;;;;;;;23.35;41.96;100236.97;4479193;32;34109;-58
2021/05/26 08:07:15;;;;;;;4.80;2.12;;;;;;;23.35;41.95;100238.88;4478655;32;34064;-58
2021/05/26 08:09:42;;;;;;;6.43;2.97;;;;;;;23.37;41.93;100234.91;4479819;32;32412;-58
2021/05/26 08:12:10;;;;;;;8.00;2.42;;;;;;;23.35;41.93;100228.81;4479064;32;33630;-56
2021/05/26 08:14:37;;;;;;;5.57;2.25;;;;;;;23.36;41.92;100226.91;4478779;32;32661;-58
2021/05/26 08:17:05;;;;;;;4.90;1.92;;;;;;;23.36;41.92;100229.66;4479699;32;37054;-57
2021/05/26 08:19:32;;;;;;;4.43;2.10;;;;;;;23.35;41.92;100225.25;4481217;32;34476;-58
2021/05/26 08:22:00;;;;;;;6.70;2.40;;;;;;;23.35;41.91;100230.69;4479011;32;33727;-59
2021/05/26 08:24:27;;;;;;;5.87;1.98;;;;;;;23.35;41.91;100230.69;4479291;32;34593;-59
2021/05/26 08:26:55;;;;;;;7.43;2.12;;;;;;;23.35;41.91;100223.37;4480572;32;33981;-59
2021/05/26 08:29:22;;;;;;;6.43;2.67;;;;;;;23.35;41.90;100211.62;4481309;32;34411;-58
2021/05/26 08:31:50;;;;;;;4.93;2.20;;;;;;;23.34;41.90;100218.97;4480319;32;34585;-58
2021/05/26 08:34:18;;;;;;;5.30;2.00;;;;;;;23.36;41.90;100221.47;4480348;32;33613;-58
2021/05/26 08:36:46;;;;;;;3.67;1.80;;;;;;;23.35;41.90;100222.53;4480493;32;34468;-58
2021/05/26 08:39:13;;;;;;;6.18;2.05;;;;;;;23.35;41.89;100222.53;4480226;32;33616;-60
2021/05/26 08:41:44;;;;;;;4.40;2.05;;;;;;;23.35;41.89;100219.81;4480332;32;34546;-59
2021/05/26 08:44:14;;;;;;;5.28;1.85;;;;;;;23.34;41.89;100212.69;4480506;32;32438;-58
2021/05/26 08:46:42;;;;;;;5.62;2.28;;;;;;;23.34;41.89;100218.16;4479974;32;33957;-56
2021/05/26 08:49:10;;;;;;;4.30;2.08;;;;;;;23.35;41.89;100214.38;4480375;32;33587;-56
2021/05/26 08:51:37;;;;;;;4.62;1.70;;;;;;;23.33;41.90;100211.03;4479810;32;34617;-58
2021/05/26 08:54:04;;;;;;;6.78;2.55;;;;;;;23.33;41.89;100211.03;4464793;32;33290;-57
2021/05/26 08:56:32;;;;;;;5.80;2.22;;;;;;;23.33;41.89;100200.13;4480058;31;33771;-59
2021/05/26 08:59:00;;;;;;;6.07;1.80;;;;;;;23.33;41.90;100206.41;4480174;32;34154;-58
2021/05/26 09:01:27;;;;;;;4.80;1.73;;;;;;;23.34;41.88;100201.81;4480200;32;34115;-59
2021/05/26 09:03:55;;;;;;;5.18;2.00;;;;;;;23.33;41.88;100200.13;4477825;32;34386;-58
2021/05/26 09:06:22;;;;;;;5.03;1.80;;;;;;;23.33;41.88;100190.09;4478791;32;34096;-57
2021/05/26 09:08:51;;;;;;;4.65;1.98;;;;;;;23.32;41.88;100196.59;4478572;32;32772;-58
2021/05/26 09:11:33;;;;;;;3.42;1.62;;;;;;;23.33;41.89;100189.25;4477251;32;33864;-58
2021/05/26 09:14:20;;;;;;;4.07;1.73;;;;;;;23.34;41.86;100188.19;4478921;32;34718;-58
2021/05/26 09:16:48;;;;;;;4.50;2.00;;;;;;;23.34;41.84;100191.75;4478018;32;33968;-59
2021/05/26 09:19:15;;;;;;;5.75;2.00;;;;;;;23.33;41.88;100183.81;4478832;32;33505;-57
2021/05/26 09:21:55;;;;;;;3.92;1.90;;;;;;;23.32;41.89;100179.41;4478344;32;34775;-58
2021/05/26 09:24:22;;;;;;;3.87;1.80;;;;;;;23.32;41.88;100173.97;4478212;32;33936;-58
2021/05/26 09:26:58;;;;;;;4.22;1.90;;;;;;;23.32;41.86;100182.97;4478731;32;32652;-57
2021/05/26 09:29:29;;;;;;;5.57;1.85;;;;;;;23.32;41.88;100171.25;4477927;32;33311;-58
2021/05/26 09:32:23;;;;;;;5.80;2.03;;;;;;;23.29;41.91;100166.22;4478019;32;33676;-58
2021/05/26 09:34:54;;;;;;;5.37;2.05;;;;;;;23.33;41.85;100167.47;4477584;32;34360;-57
2021/05/26 09:37:27;;;;;;;4.15;1.83;;;;;;;23.31;41.89;100161.38;4478673;32;34159;-59
2021/05/26 09:40:06;;;;;;;5.07;1.87;;;;;;;23.31;41.87;100161.38;4477869;32;34333;-58
2021/05/26 09:42:35;;;;;;;3.75;1.70;;;;;;;23.31;41.87;100153.22;4478031;32;34663;-57
2021/05/26 09:45:13;;;;;;;3.83;1.60;;;;;;;23.31;41.84;100151.31;4478936;32;33815;-58
2021/05/26 09:47:45;;;;;;;5.12;1.98;;;;;;;23.32;41.87;100150.31;4478441;32;33905;-59
2021/05/26 09:50:19;;;;;;;5.72;1.95;;;;;;;23.31;41.88;100151.31;4478247;32;33243;-58
2021/05/26 09:53:11;;;;;;;4.65;1.65;;;;;;;23.30;41.88;100151.56;4476800;32;33639;-58
2021/05/26 09:55:40;;;;;;;6.07;1.75;;;;;;;23.31;41.86;100148.59;4477859;32;32549;-57
2021/05/26 09:58:09;;;;;;;4.87;2.17;;;;;;;23.30;41.88;100143.38;4477779;32;34034;-58
2021/05/26 10:00:38;;;;;;;3.80;1.70;;;;;;;23.29;41.88;100144.44;4478243;32;34651;-57
2021/05/26 10:03:06;;;;;;;2.58;1.62;;;;;;;23.30;41.86;100141.50;4477296;32;33832;-60
2021/05/26 10:05:35;;;;;;;4.90;1.80;;;;;;;23.29;41.86;100137.09;4478518;32;33588;-56
2021/05/26 10:08:21;;;;;;;3.55;1.70;;;;;;;23.30;41.85;100132.50;4477077;32;34072;-57
2021/05/26 10:10:51;;;;;;;3.45;1.75;;;;;;;23.29;41.89;100133.56;4477587;32;33494;-58
2021/05/26 10:13:21;;;;;;;4.37;2.10;;;;;;;23.28;41.88;100118.28;4464490;32;33753;-58
2021/05/26 10:15:49;;;;;;;4.78;1.42;;;;;;;23.31;41.85;100120.53;4463464;32;34734;-56
2021/05/26 10:18:17;;;;;;;4.22;1.65;;;;;;;23.31;41.82;100115.09;4476471;32;34169;-58
2021/05/26 10:20:45;;;;;;;3.95;1.77;;;;;;;23.29;41.83;100111.78;4476710;32;34422;-59
2021/05/26 10:23:17;;;;;;;3.85;1.73;;;;;;;23.29;41.83;100109.88;4464509;32;32518;-57
2021/05/26 10:25:46;;;;;;;4.07;1.73;;;;;;;23.30;41.85;100108.81;4478370;31;33806;-57
2021/05/26 10:28:26;;;;;;;5.07;2.10;;;;;;;23.29;41.83;100107.16;4480541;32;34850;-57
2021/05/26 10:30:56;;;;;;;4.45;1.92;;;;;;;23.30;41.81;100102.53;4479618;32;33250;-59
2021/05/26 10:33:39;;;;;;;3.30;1.48;;;;;;;23.28;41.85;100099.22;4484382;32;33789;-60
2021/05/26 10:36:10;;;;;;;4.32;1.62;;;;;;;23.32;41.79;100103.19;4485016;32;33540;-60
2021/05/26 10:39:07;;;;;;;4.72;1.62;;;;;;;23.29;41.85;100103.59;4482316;32;34639;-59
2021/05/26 10:41:51;;;;;;;3.10;1.42;;;;;;;23.32;41.80;100100.47;4468123;32;32307;-59
2021/05/26 10:44:19;;;;;;;5.25;1.80;;;;;;;23.30;41.83;100094.37;4481213;32;33837;-59
2021/05/26 10:46:50;;;;;;;4.93;2.05;;;;;;;23.28;41.87;100093.78;4468351;32;34736;-59
2021/05/26 10:49:17;;;;;;;3.35;1.65;;;;;;;23.27;41.86;100076.59;4468291;32;34013;-58
2021/05/26 10:51:51;;;;;;;3.42;1.65;;;;;;;23.28;41.87;100088.34;4468972;32;34244;-58
2021/05/26 10:54:40;;;;;;;3.67;1.55;;;;;;;23.29;41.88;100081.81;4469740;32;33648;-59
2021/05/26 10:57:08;;;;;;;5.68;1.67;;;;;;;23.31;41.83;100082.44;4473605;32;34969;-60
2021/05/26 10:59:36;;;;;;;4.35;1.90;;;;;;;23.28;41.85;100082.88;4481606;32;35087;-58
2021/05/26 11:02:10;;;;;;;3.42;1.52;;;;;;;23.27;41.86;100076.59;4483025;32;34345;-58
2021/05/26 11:04:39;;;;;;;2.12;1.42;;;;;;;23.28;41.83;100074.72;4483033;32;33869;-60
2021/05/26 11:07:20;;;;;;;4.30;1.60;;;;;;;23.28;41.85;100072.00;4468239;32;34875;-57
2021/05/26 11:10:05;;;;;;;4.10;1.60;;;;;;;23.29;41.82;100074.50;4468324;32;33927;-60
2021/05/26 11:12:54;;;;;;;3.55;1.35;;;;;;;23.27;41.83;100065.72;4473532;32;33586;-59
2021/05/26 11:15:41;;;;;;;3.58;1.62;;;;;;;23.31;41.82;100066.09;4484508;32;33698;-60
2021/05/26 11:18:15;;;;;;;7.12;1.58;;;;;;;23.30;41.79;100056.25;4484577;32;33677;-60
2021/05/26 11:20:43;;;;;;;14.68;2.10;;;;;;;23.27;41.29;100051.25;4484438;32;34577;-61
2021/05/26 11:23:15;;;;;;;11.38;2.37;;;;;;;23.27;41.11;100049.38;4484331;32;33602;-60
2021/05/26 11:25:49;;;;;;;14.50;2.70;;;;;;;23.27;40.40;100049.38;4482760;32;33934;-58
2021/05/26 11:28:26;;;;;;;12.13;2.17;;;;;;;23.28;40.24;100047.50;4477022;32;34990;-59
2021/05/26 11:31:01;;;;;;;14.70;2.28;;;;;;;23.29;39.88;100038.25;4482579;32;34377;-60
2021/05/26 11:33:28;;;;;;;11.80;1.80;;;;;;;23.28;40.17;100045.59;4472045;32;33574;-59
2021/05/26 11:36:02;;;;;;;15.15;1.98;;;;;;;23.28;39.44;100036.59;4466698;32;34468;-59